sensor_id;sensor_type;location;lat;lon;timestamp;pressure;altitude;pressure_sealevel;temperature;humidity
26915;BME280;14480;52.608;13.416;2023-02-19T08:34:43;140946.19;;;-12.50;100.00
26915;BME280;14480;52.608;13.416;2023-02-19T08:39:46;140978.16;;;-12.37;100.00
26915;BME280;14480;52.608;13.416;2023-02-19T08:44:50;141029.84;;;-12.15;100.00
26915;BME280;14480;52.608;13.416;2023-02-19T08:49:55;141081.50;;;-11.94;100.00
26915;BME280;14480;52.608;13.416;2023-02-19T08:54:58;141047.06;;;-12.08;100.00
26915;BME280;14480;52.608;13.416;2023-02-19T09:00:01;141063.06;;;-12.01;100.00
26915;BME280;14480;52.608;13.416;2023-02-19T09:05:07;141047.06;;;-12.08;100.00
26915;BME280;14480;52.608;13.416;2023-02-19T09:10:11;141069.22;;;-11.99;100.00
26915;BME280;14480;52.608;13.416;2023-02-19T09:15:14;141087.69;;;-11.91;100.00
26915;BME280;14480;52.608;13.416;2023-02-19T09:20:20;141095.06;;;-11.88;100.00
26915;BME280;14480;52.608;13.416;2023-02-19T09:25:24;141114.78;;;-11.80;100.00
26915;BME280;14480;52.608;13.416;2023-02-19T09:30:27;141127.03;;;-11.75;100.00
26915;BME280;14480;52.608;13.416;2023-02-19T09:35:32;141161.47;;;-11.61;100.00
26915;BME280;14480;52.608;13.416;2023-02-19T09:40:35;141136.84;;;-11.71;100.00
26915;BME280;14480;52.608;13.416;2023-02-19T09:45:39;141128.25;;;-11.74;100.00
26915;BME280;14480;52.608;13.416;2023-02-19T09:50:46;141156.56;;;-11.63;100.00
26915;BME280;14480;52.608;13.416;2023-02-19T09:55:51;141251.38;;;-11.24;100.00
26915;BME280;14480;52.608;13.416;2023-02-19T10:00:55;141197.19;;;-11.46;100.00
26915;BME280;14480;52.608;13.416;2023-02-19T10:06:03;141299.41;;;-11.04;100.00
26915;BME280;14480;52.608;13.416;2023-02-19T10:11:11;141266.16;;;-11.18;100.00
26915;BME280;14480;52.608;13.416;2023-02-19T10:16:15;141253.88;;;-11.23;100.00
26915;BME280;14480;52.608;13.416;2023-02-19T10:21:21;141374.59;;;-10.73;100.00
26915;BME280;14480;52.608;13.416;2023-02-19T10:26:26;141485.53;;;-10.27;100.00
26915;BME280;14480;52.608;13.416;2023-02-19T10:31:31;141433.75;;;-10.48;100.00
26915;BME280;14480;52.608;13.416;2023-02-19T10:36:37;141489.22;;;-10.25;100.00
26915;BME280;14480;52.608;13.416;2023-02-19T10:41:41;141492.91;;;-10.24;100.00
26915;BME280;14480;52.608;13.416;2023-02-19T10:46:46;141398.00;;;-10.63;100.00
26915;BME280;14480;52.608;13.416;2023-02-19T10:51:52;141465.78;;;-10.35;100.00
26915;BME280;14480;52.608;13.416;2023-02-19T10:57:13;141480.59;;;-10.29;100.00
26915;BME280;14480;52.608;13.416;2023-02-19T11:02:22;141501.47;;;-10.20;100.00
26915;BME280;14480;52.608;13.416;2023-02-19T11:07:27;141511.34;;;-10.16;100.00
26915;BME280;14480;52.608;13.416;2023-02-19T11:12:31;141538.50;;;-10.05;100.00
26915;BME280;14480;52.608;13.416;2023-02-19T11:17:36;141574.22;;;-9.90;100.00
26915;BME280;14480;52.608;13.416;2023-02-19T11:22:41;141650.72;;;-9.59;100.00
26915;BME280;14480;52.608;13.416;2023-02-19T11:27:55;141606.28;;;-9.77;100.00
26915;BME280;14480;52.608;13.416;2023-02-19T11:33:21;141561.88;;;-9.95;100.00
26915;BME280;14480;52.608;13.416;2023-02-19T11:38:27;141561.88;;;-9.95;100.00
26915;BME280;14480;52.608;13.416;2023-02-19T11:43:49;141559.41;;;-9.96;100.00
26915;BME280;14480;52.608;13.416;2023-02-19T11:48:54;141608.75;;;-9.76;100.00
26915;BME280;14480;52.608;13.416;2023-02-19T11:54:09;141602.59;;;-9.79;100.00
26915;BME280;14480;52.608;13.416;2023-02-19T11:59:20;141603.81;;;-9.78;100.00
26915;BME280;14480;52.608;13.416;2023-02-19T12:09:48;141474.41;;;-10.32;100.00
26915;BME280;14480;52.608;13.416;2023-02-19T12:20:16;141570.53;;;-9.92;100.00
26915;BME280;14480;52.608;13.416;2023-02-19T12:25:26;141650.72;;;-9.59;100.00
26915;BME280;14480;52.608;13.416;2023-02-19T12:35:59;141688.94;;;-9.43;100.00
26915;BME280;14480;52.608;13.416;2023-02-19T12:46:26;141708.69;;;-9.35;100.00
26915;BME280;14480;52.608;13.416;2023-02-19T12:51:33;141772.84;;;-9.08;100.00
26915;BME280;14480;52.608;13.416;2023-02-19T12:56:39;141591.50;;;-9.83;100.00
26915;BME280;14480;52.608;13.416;2023-02-19T13:01:45;141611.22;;;-9.75;100.00
26915;BME280;14480;52.608;13.416;2023-02-19T13:06:50;141547.09;;;-10.02;100.00
26915;BME280;14480;52.608;13.416;2023-02-19T13:11:57;141518.75;;;-10.13;100.00
26915;BME280;14480;52.608;13.416;2023-02-19T13:17:05;141566.84;;;-9.93;100.00
26915;BME280;14480;52.608;13.416;2023-02-19T13:22:13;141585.31;;;-9.86;100.00
26915;BME280;14480;52.608;13.416;2023-02-19T13:27:41;141561.88;;;-9.95;100.00
26915;BME280;14480;52.608;13.416;2023-02-19T13:32:57;141601.38;;;-9.79;100.00
26915;BME280;14480;52.608;13.416;2023-02-19T13:38:01;141638.34;;;-9.64;100.00
26915;BME280;14480;52.608;13.416;2023-02-19T13:43:06;141740.78;;;-9.22;100.00
26915;BME280;14480;52.608;13.416;2023-02-19T13:48:23;141801.25;;;-8.97;100.00
26915;BME280;14480;52.608;13.416;2023-02-19T13:58:52;141623.56;;;-9.70;100.00
26915;BME280;14480;52.608;13.416;2023-02-19T14:04:05;141559.41;;;-9.96;100.00
26915;BME280;14480;52.608;13.416;2023-02-19T14:14:33;141487.97;;;-10.26;100.00
26915;BME280;14480;52.608;13.416;2023-02-19T14:19:46;141521.22;;;-10.12;100.00
26915;BME280;14480;52.608;13.416;2023-02-19T14:24:53;141536.03;;;-10.06;100.00
26915;BME280;14480;52.608;13.416;2023-02-19T14:29:59;141516.28;;;-10.14;100.00
26915;BME280;14480;52.608;13.416;2023-02-19T14:35:04;141439.88;;;-10.46;100.00
26915;BME280;14480;52.608;13.416;2023-02-19T14:40:08;141406.63;;;-10.60;100.00
26915;BME280;14480;52.608;13.416;2023-02-19T14:45:15;141416.47;;;-10.55;100.00
26915;BME280;14480;52.608;13.416;2023-02-19T14:50:24;141439.88;;;-10.46;100.00
26915;BME280;14480;52.608;13.416;2023-02-19T14:55:29;141507.66;;;-10.18;100.00
26915;BME280;14480;52.608;13.416;2023-02-19T15:00:35;141591.50;;;-9.83;100.00
26915;BME280;14480;52.608;13.416;2023-02-19T15:05:41;141628.50;;;-9.68;100.00
26915;BME280;14480;52.608;13.416;2023-02-19T15:10:46;141534.78;;;-10.07;100.00
26915;BME280;14480;52.608;13.416;2023-02-19T15:15:52;141558.19;;;-9.97;100.00
26915;BME280;14480;52.608;13.416;2023-02-19T15:21:01;141467.00;;;-10.35;100.00
26915;BME280;14480;52.608;13.416;2023-02-19T15:26:05;141444.81;;;-10.44;100.00
26915;BME280;14480;52.608;13.416;2023-02-19T15:31:16;141388.13;;;-10.67;100.00
26915;BME280;14480;52.608;13.416;2023-02-19T15:36:28;141373.34;;;-10.73;100.00
26915;BME280;14480;52.608;13.416;2023-02-19T15:41:32;141288.34;;;-11.08;100.00
26915;BME280;14480;52.608;13.416;2023-02-19T15:46:36;141261.25;;;-11.20;100.00
26915;BME280;14480;52.608;13.416;2023-02-19T15:51:42;141218.13;;;-11.37;100.00
26915;BME280;14480;52.608;13.416;2023-02-19T15:56:48;141195.94;;;-11.47;100.00
26915;BME280;14480;52.608;13.416;2023-02-19T16:01:51;141189.81;;;-11.49;100.00
26915;BME280;14480;52.608;13.416;2023-02-19T16:06:58;141163.94;;;-11.60;100.00
26915;BME280;14480;52.608;13.416;2023-02-19T16:12:03;141141.81;;;-11.69;100.00
26915;BME280;14480;52.608;13.416;2023-02-19T16:17:20;141146.72;;;-11.67;100.00
26915;BME280;14480;52.608;13.416;2023-02-19T16:22:30;141109.81;;;-11.82;100.00
26915;BME280;14480;52.608;13.416;2023-02-19T16:27:36;141065.53;;;-12.00;100.00
26915;BME280;14480;52.608;13.416;2023-02-19T16:32:40;141032.31;;;-12.14;100.00
26915;BME280;14480;52.608;13.416;2023-02-19T16:37:58;140994.13;;;-12.30;100.00
26915;BME280;14480;52.608;13.416;2023-02-19T16:48:20;140941.22;;;-12.52;100.00
26915;BME280;14480;52.608;13.416;2023-02-19T16:53:25;140915.41;;;-12.62;100.00
26915;BME280;14480;52.608;13.416;2023-02-19T16:58:33;140892.06;;;-12.72;100.00
26915;BME280;14480;52.608;13.416;2023-02-19T17:03:41;140855.13;;;-12.87;100.00
26915;BME280;14480;52.608;13.416;2023-02-19T17:08:48;140834.28;;;-12.96;100.00
26915;BME280;14480;52.608;13.416;2023-02-19T17:13:51;140815.81;;;-13.04;100.00
26915;BME280;14480;52.608;13.416;2023-02-19T17:18:55;140798.56;;;-13.11;100.00
26915;BME280;14480;52.608;13.416;2023-02-19T17:24:08;140793.66;;;-13.13;100.00
26915;BME280;14480;52.608;13.416;2023-02-19T17:29:12;140765.44;;;-13.24;100.00
26915;BME280;14480;52.608;13.416;2023-02-19T17:34:16;140750.72;;;-13.31;100.00
26915;BME280;14480;52.608;13.416;2023-02-19T17:39:21;140739.63;;;-13.35;100.00
26915;BME280;14480;52.608;13.416;2023-02-19T17:44:25;140707.69;;;-13.48;100.00
26915;BME280;14480;52.608;13.416;2023-02-19T17:49:28;140782.63;;;-13.17;100.00
26915;BME280;14480;52.608;13.416;2023-02-19T17:54:33;140783.84;;;-13.17;100.00
26915;BME280;14480;52.608;13.416;2023-02-19T17:59:36;140788.75;;;-13.15;100.00
26915;BME280;14480;52.608;13.416;2023-02-19T18:04:40;140809.69;;;-13.06;100.00
26915;BME280;14480;52.608;13.416;2023-02-19T18:09:45;140806.00;;;-13.08;100.00
26915;BME280;14480;52.608;13.416;2023-02-19T18:14:48;140788.75;;;-13.15;100.00
26915;BME280;14480;52.608;13.416;2023-02-19T18:19:52;140785.09;;;-13.16;100.00
26915;BME280;14480;52.608;13.416;2023-02-19T18:24:57;140764.22;;;-13.25;100.00
26915;BME280;14480;52.608;13.416;2023-02-19T18:30:00;140766.66;;;-13.24;100.00
26915;BME280;14480;52.608;13.416;2023-02-19T18:35:04;140754.41;;;-13.29;100.00
26915;BME280;14480;52.608;13.416;2023-02-19T18:40:10;140744.53;;;-13.33;100.00
26915;BME280;14480;52.608;13.416;2023-02-19T18:45:13;140733.50;;;-13.38;100.00
26915;BME280;14480;52.608;13.416;2023-02-19T18:50:17;140735.94;;;-13.37;100.00
26915;BME280;14480;52.608;13.416;2023-02-19T18:55:22;140738.41;;;-13.36;100.00
26915;BME280;14480;52.608;13.416;2023-02-19T19:00:25;140728.59;;;-13.40;100.00
26915;BME280;14480;52.608;13.416;2023-02-19T19:05:29;140722.44;;;-13.42;100.00
26915;BME280;14480;52.608;13.416;2023-02-19T19:10:33;140715.03;;;-13.45;100.00
26915;BME280;14480;52.608;13.416;2023-02-19T19:15:37;140713.81;;;-13.46;100.00
26915;BME280;14480;52.608;13.416;2023-02-19T19:20:44;140705.22;;;-13.49;100.00
26915;BME280;14480;52.608;13.416;2023-02-19T19:25:49;140691.69;;;-13.55;100.00
26915;BME280;14480;52.608;13.416;2023-02-19T19:30:52;140668.38;;;-13.65;100.00
26915;BME280;14480;52.608;13.416;2023-02-19T19:35:55;140662.19;;;-13.67;100.00
26915;BME280;14480;52.608;13.416;2023-02-19T19:41:00;140659.75;;;-13.68;100.00
26915;BME280;14480;52.608;13.416;2023-02-19T19:46:04;140647.47;;;-13.73;100.00
26915;BME280;14480;52.608;13.416;2023-02-19T19:51:12;140656.06;;;-13.70;100.00
26915;BME280;14480;52.608;13.416;2023-02-19T19:56:17;140647.47;;;-13.73;100.00
26915;BME280;14480;52.608;13.416;2023-02-19T20:01:21;140652.38;;;-13.71;100.00
26915;BME280;14480;52.608;13.416;2023-02-19T20:06:26;140643.78;;;-13.75;100.00
26915;BME280;14480;52.608;13.416;2023-02-19T20:11:33;140649.94;;;-13.72;100.00
26915;BME280;14480;52.608;13.416;2023-02-19T20:16:36;140641.34;;;-13.76;100.00
26915;BME280;14480;52.608;13.416;2023-02-19T20:21:42;140619.22;;;-13.85;100.00
26915;BME280;14480;52.608;13.416;2023-02-19T20:26:47;140602.00;;;-13.92;100.00
26915;BME280;14480;52.608;13.416;2023-02-19T20:31:50;140588.50;;;-13.98;100.00
26915;BME280;14480;52.608;13.416;2023-02-19T20:36:54;140572.53;;;-14.04;100.00
26915;BME280;14480;52.608;13.416;2023-02-19T20:41:59;140568.84;;;-14.06;100.00
26915;BME280;14480;52.608;13.416;2023-02-19T20:47:02;140576.19;;;-14.03;100.00
26915;BME280;14480;52.608;13.416;2023-02-19T20:52:08;140578.66;;;-14.02;100.00
26915;BME280;14480;52.608;13.416;2023-02-19T20:57:13;140589.72;;;-13.97;100.00
26915;BME280;14480;52.608;13.416;2023-02-19T21:02:17;140599.53;;;-13.93;100.00
26915;BME280;14480;52.608;13.416;2023-02-19T21:07:23;140616.75;;;-13.86;100.00
26915;BME280;14480;52.608;13.416;2023-02-19T21:12:28;140616.75;;;-13.86;100.00
26915;BME280;14480;52.608;13.416;2023-02-19T21:17:32;140636.38;;;-13.78;100.00
26915;BME280;14480;52.608;13.416;2023-02-19T21:22:35;140632.72;;;-13.79;100.00
26915;BME280;14480;52.608;13.416;2023-02-19T21:27:40;140621.66;;;-13.84;100.00
26915;BME280;14480;52.608;13.416;2023-02-19T21:32:43;140598.31;;;-13.94;100.00
26915;BME280;14480;52.608;13.416;2023-02-19T21:37:47;140593.41;;;-13.96;100.00
26915;BME280;14480;52.608;13.416;2023-02-19T21:42:54;140597.09;;;-13.94;100.00
26915;BME280;14480;52.608;13.416;2023-02-19T21:47:57;140609.34;;;-13.89;100.00
26915;BME280;14480;52.608;13.416;2023-02-19T21:53:01;140627.81;;;-13.81;100.00
26915;BME280;14480;52.608;13.416;2023-02-19T21:58:07;140648.69;;;-13.73;100.00
26915;BME280;14480;52.608;13.416;2023-02-19T22:03:13;140668.38;;;-13.65;100.00
26915;BME280;14480;52.608;13.416;2023-02-19T22:08:17;140691.69;;;-13.55;100.00
26915;BME280;14480;52.608;13.416;2023-02-19T22:13:26;140690.47;;;-13.56;100.00
26915;BME280;14480;52.608;13.416;2023-02-19T22:18:30;140697.88;;;-13.52;100.00
